Time;durP1;ratioP1;P1;durP2;ratioP2;P2;SDS_P1;SDS_P2;PMS_P1;PMS_P2;Temp;Humidity;BMP_temperature;BMP_pressure;BME280_temperature;BME280_humidity;BME280_pressure;Samples;Min_cycle;Max_cycle;Signal;HPM_P1;HPM_P2
2023/06/20 00:00:40;;;;;;;3.10;2.35;;;;;;;18.73;100.00;97711.47;1709896;75;682665;-69
2023/06/20 00:03:10;;;;;;;5.00;3.15;;;;;;;18.49;100.00;97702.00;1700917;75;747411;-72
2023/06/20 00:05:43;;;;;;;6.00;4.95;;;;;;;18.52;100.00;97691.91;1709981;75;672694;-70
2023/06/20 00:08:13;;;;;;;4.10;3.80;;;;;;;18.63;100.00;97700.03;1701440;75;751159;-69
2023/06/20 00:10:44;;;;;;;4.00;3.60;;;;;;;18.53;100.00;97699.69;1709854;75;674351;-70
2023/06/20 00:13:17;;;;;;;3.30;3.00;;;;;;;18.52;100.00;97694.69;1701196;75;755093;-69
2023/06/20 00:15:47;;;;;;;3.40;3.00;;;;;;;18.59;100.00;97694.06;1710332;75;676728;-73
2023/06/20 00:18:21;;;;;;;3.35;3.00;;;;;;;18.56;100.00;97697.88;1701398;75;749393;-71
2023/06/20 00:20:55;;;;;;;3.20;2.90;;;;;;;18.52;100.00;97684.34;1710453;75;680606;-72
2023/06/20 00:23:25;;;;;;;3.10;2.65;;;;;;;18.48;100.00;97685.94;1700961;75;759522;-70
2023/06/20 00:25:55;;;;;;;2.65;2.30;;;;;;;18.48;100.00;97692.22;1710103;75;683994;-71
2023/06/20 00:28:25;;;;;;;4.65;3.00;;;;;;;18.39;100.00;97689.09;1700780;75;762490;-70
2023/06/20 00:30:56;;;;;;;3.75;3.00;;;;;;;18.38;100.00;97682.06;1710249;75;673919;-68
2023/06/20 00:33:26;;;;;;;3.35;3.05;;;;;;;18.28;100.00;97685.22;1700942;75;752505;-70
2023/06/20 00:35:59;;;;;;;5.25;3.50;;;;;;;18.22;100.00;97681.03;1710385;75;672845;-72
2023/06/20 00:38:29;;;;;;;3.30;3.00;;;;;;;18.22;100.00;97679.00;1701664;75;749469;-70
2023/06/20 00:41:00;;;;;;;3.60;3.10;;;;;;;18.24;100.00;97675.72;1710561;75;677915;-67
2023/06/20 00:43:30;;;;;;;3.05;2.75;;;;;;;18.26;100.00;97668.38;1701593;75;740480;-70
2023/06/20 00:46:01;;;;;;;2.60;2.40;;;;;;;18.23;100.00;97666.69;1710395;75;670502;-70
2023/06/20 00:48:31;;;;;;;3.25;2.60;;;;;;;18.21;100.00;97668.47;1701319;75;745103;-70
2023/06/20 00:51:04;;;;;;;2.50;2.30;;;;;;;18.15;100.00;97663.00;1709829;75;691408;-70
2023/06/20 00:53:34;;;;;;;2.85;2.60;;;;;;;18.17;100.00;97660.47;1701368;75;738182;-72
2023/06/20 00:56:05;;;;;;;2.70;2.50;;;;;;;18.10;100.00;97658.31;1710497;75;669426;-70
2023/06/20 00:58:36;;;;;;;2.95;2.65;;;;;;;18.06;100.00;97646.78;1701207;75;738111;-70
2023/06/20 01:01:06;;;;;;;3.00;2.70;;;;;;;17.99;100.00;97650.16;1709569;75;675672;-69
2023/06/20 01:03:38;;;;;;;2.80;2.60;;;;;;;17.94;100.00;97651.72;1700488;75;775584;-68
2023/06/20 01:06:26;;;;;;;2.80;2.40;;;;;;;17.93;100.00;97646.72;1710254;75;682881;-70
2023/06/20 01:09:03;;;;;;;2.65;2.45;;;;;;;17.92;100.00;97643.22;1701184;75;762702;-71
2023/06/20 01:11:46;;;;;;;3.20;2.90;;;;;;;17.84;100.00;97647.84;1702308;75;681915;-68
2023/06/20 01:14:27;;;;;;;2.60;2.40;;;;;;;17.87;100.00;97644.03;1710212;75;675914;-69
2023/06/20 01:17:03;;;;;;;2.35;2.15;;;;;;;17.83;100.00;97644.34;1700956;75;744268;-69
2023/06/20 01:20:12;;;;;;;2.70;2.50;;;;;;;17.79;100.00;97643.88;1701969;75;676798;-69
2023/06/20 01:23:03;;;;;;;2.60;2.20;;;;;;;17.80;100.00;97644.63;1702530;75;673573;-68
2023/06/20 01:25:46;;;;;;;2.60;2.40;;;;;;;17.76;100.00;97646.94;1703889;75;676996;-69
2023/06/20 01:28:25;;;;;;;2.20;2.00;;;;;;;17.71;100.00;97659.59;1709907;75;683332;-69
2023/06/20 01:31:03;;;;;;;2.30;2.10;;;;;;;17.70;100.00;97646.25;1700960;75;725486;-69
2023/06/20 01:33:40;;;;;;;2.50;2.30;;;;;;;17.72;100.00;97658.31;1706701;75;673951;-67
2023/06/20 01:36:13;;;;;;;2.20;2.00;;;;;;;17.72;100.00;97649.25;1710318;75;674013;-69
2023/06/20 01:38:48;;;;;;;3.50;3.05;;;;;;;17.66;100.00;97658.41;1702395;75;673091;-71
2023/06/20 01:41:23;;;;;;;3.90;3.10;;;;;;;17.57;100.00;97656.00;1709561;75;677980;-71
2023/06/20 01:43:56;;;;;;;3.55;3.25;;;;;;;17.52;100.00;97661.63;1702258;75;684883;-68
2023/06/20 01:46:29;;;;;;;4.00;3.60;;;;;;;17.40;100.00;97661.00;1709626;75;686031;-68
2023/06/20 01:49:02;;;;;;;4.20;3.80;;;;;;;17.38;100.00;97655.97;1701182;75;704240;-69
2023/06/20 01:51:34;;;;;;;6.20;5.60;;;;;;;17.22;100.00;97662.47;1709859;75;680588;-69
2023/06/20 01:54:08;;;;;;;5.85;4.95;;;;;;;17.36;100.00;97666.81;1701229;75;760652;-69
2023/06/20 01:56:39;;;;;;;5.90;4.95;;;;;;;17.24;100.00;97666.22;1710157;75;683784;-70
2023/06/20 01:59:10;;;;;;;5.30;4.80;;;;;;;17.23;100.00;97666.75;1701469;75;749722;-69
2023/06/20 02:01:43;;;;;;;5.05;4.55;;;;;;;17.23;100.00;97670.25;1709020;75;701501;-69
2023/06/20 02:04:14;;;;;;;4.25;3.85;;;;;;;17.29;100.00;97666.66;1701377;75;752797;-69
2023/06/20 02:06:47;;;;;;;3.30;3.00;;;;;;;17.31;100.00;97675.94;1709729;75;681774;-70
2023/06/20 02:09:21;;;;;;;4.15;3.40;;;;;;;17.23;100.00;97670.25;1700420;75;761224;-70
2023/06/20 02:11:52;;;;;;;3.80;3.35;;;;;;;17.22;100.00;97674.31;1708582;75;831463;-67
2023/06/20 02:14:23;;;;;;;3.85;2.95;;;;;;;17.20;100.00;97678.84;1700399;75;757438;-71
2023/06/20 02:16:56;;;;;;;3.50;2.85;;;;;;;17.17;100.00;97679.88;1710182;75;672036;-68
2023/06/20 02:19:26;;;;;;;3.40;3.10;;;;;;;17.21;100.00;97683.84;1700846;75;742738;-69
2023/06/20 02:21:59;;;;;;;3.75;2.90;;;;;;;17.17;100.00;97677.09;1710333;75;668798;-71
2023/06/20 02:24:37;;;;;;;3.75;3.00;;;;;;;17.13;100.00;97673.91;1701184;75;748169;-71
2023/06/20 02:27:10;;;;;;;3.20;2.90;;;;;;;17.08;100.00;97666.41;1702162;75;691400;-69
2023/06/20 02:29:42;;;;;;;3.10;2.80;;;;;;;17.07;100.00;97670.44;1709749;75;670843;-71
2023/06/20 02:32:14;;;;;;;3.50;3.20;;;;;;;17.03;100.00;97668.72;1701526;75;681158;-68
2023/06/20 02:34:50;;;;;;;3.70;3.30;;;;;;;17.03;100.00;97676.28;1709985;75;679260;-68
2023/06/20 02:37:20;;;;;;;3.70;3.20;;;;;;;17.00;100.00;97672.53;1701958;67;683222;-69
2023/06/20 02:39:53;;;;;;;3.30;3.00;;;;;;;16.98;100.00;97674.28;1709666;75;674750;-72
2023/06/20 02:42:23;;;;;;;3.65;3.35;;;;;;;17.03;100.00;97676.28;1702293;75;674317;-69
2023/06/20 02:44:53;;;;;;;2.70;2.50;;;;;;;17.02;100.00;97672.75;1710301;75;675072;-69
2023/06/20 02:47:33;;;;;;;2.70;2.50;;;;;;;17.05;100.00;97673.72;1701638;75;677557;-68
2023/06/20 02:50:14;;;;;;;2.70;2.50;;;;;;;17.02;100.00;97675.50;1710260;75;671208;-68
2023/06/20 02:52:51;;;;;;;3.00;2.70;;;;;;;16.99;100.00;97673.78;1702337;75;746291;-71
2023/06/20 02:55:37;;;;;;;3.25;2.95;;;;;;;17.01;100.00;97674.03;1702613;75;682643;-70
2023/06/20 02:58:16;;;;;;;3.40;3.00;;;;;;;16.96;100.00;97669.31;1710549;75;677597;-71
2023/06/20 03:00:52;;;;;;;3.00;2.70;;;;;;;16.99;100.00;97673.03;1700744;75;731348;-68
2023/06/20 03:03:26;;;;;;;4.00;2.65;;;;;;;16.90;100.00;97671.34;1701370;75;684173;-69
2023/06/20 03:06:01;;;;;;;3.40;3.10;;;;;;;16.88;100.00;97670.38;1709765;75;674571;-69
2023/06/20 03:08:33;;;;;;;3.10;2.80;;;;;;;16.87;100.00;97672.41;1701955;75;675382;-69
2023/06/20 03:11:06;;;;;;;3.10;2.80;;;;;;;16.87;100.00;97669.63;1709743;75;670151;-69
2023/06/20 03:13:37;;;;;;;3.90;2.80;;;;;;;16.87;100.00;97674.44;1701966;75;677138;-69
2023/06/20 03:16:09;;;;;;;3.30;2.90;;;;;;;16.82;100.00;97681.50;1709899;75;697741;-69
2023/06/20 03:18:39;;;;;;;3.05;2.75;;;;;;;16.80;100.00;97681.28;1701524;75;677127;-69
2023/06/20 03:21:09;;;;;;;3.40;3.10;;;;;;;16.78;100.00;97681.78;1709213;75;679557;-68
2023/06/20 03:23:40;;;;;;;2.70;2.50;;;;;;;16.81;100.00;97686.28;1702214;75;679892;-69
2023/06/20 03:26:13;;;;;;;2.75;2.55;;;;;;;16.87;100.00;97689.00;1709963;75;672443;-69
2023/06/20 03:28:43;;;;;;;3.40;3.10;;;;;;;16.81;100.00;97691.06;1702082;75;682626;-70
2023/06/20 03:31:13;;;;;;;3.60;3.30;;;;;;;16.78;100.00;97690.06;1680165;75;3176378;-68
2023/06/20 03:33:43;;;;;;;3.40;3.10;;;;;;;16.86;100.00;97686.75;1701658;75;674694;-69
2023/06/20 03:36:13;;;;;;;3.50;3.20;;;;;;;16.82;100.00;97687.78;1709928;75;679374;-69
2023/06/20 03:38:44;;;;;;;3.50;3.20;;;;;;;16.82;100.00;97693.31;1702123;75;694973;-71
2023/06/20 03:41:17;;;;;;;3.70;3.30;;;;;;;16.82;100.00;97687.78;1710259;75;676141;-70
2023/06/20 03:43:47;;;;;;;4.15;3.75;;;;;;;16.77;100.00;97682.28;1701137;75;756586;-70
2023/06/20 03:46:18;;;;;;;4.80;4.30;;;;;;;16.80;100.00;97684.03;1709675;75;688662;-70
2023/06/20 03:48:48;;;;;;;4.40;3.95;;;;;;;16.86;100.00;97681.97;1701699;75;751606;-71
2023/06/20 03:51:18;;;;;;;3.90;3.40;;;;;;;16.95;100.00;97678.84;1710028;75;709845;-68
2023/06/20 03:53:48;;;;;;;3.60;3.30;;;;;;;16.97;100.00;97676.31;1700421;75;758278;-72
2023/06/20 03:56:21;;;;;;;3.40;3.10;;;;;;;16.99;100.00;97675.81;1709899;75;682007;-69
2023/06/20 03:58:51;;;;;;;3.20;2.90;;;;;;;17.05;100.00;97676.47;1701624;75;751495;-70
2023/06/20 04:01:24;;;;;;;2.80;2.60;;;;;;;17.02;100.00;97681.03;1710555;75;685958;-68
2023/06/20 04:03:55;;;;;;;3.35;3.05;;;;;;;17.06;100.00;97683.53;1701958;75;757323;-69
2023/06/20 04:06:30;;;;;;;3.25;2.95;;;;;;;17.04;100.00;97686.81;1711265;75;670745;-68
2023/06/20 04:09:01;;;;;;;3.30;3.00;;;;;;;17.12;100.00;97702.81;1702396;75;741592;-69
2023/06/20 04:11:34;;;;;;;6.00;3.20;;;;;;;17.15;100.00;97702.53;1710524;75;705764;-71
2023/06/20 04:14:04;;;;;;;4.40;4.00;;;;;;;17.05;100.00;97698.59;1701379;75;741406;-69
2023/06/20 04:16:34;;;;;;;5.20;4.60;;;;;;;17.16;100.00;97695.00;1710473;75;666681;-69
2023/06/20 04:19:05;;;;;;;3.75;3.45;;;;;;;17.23;100.00;97705.47;1701090;75;760180;-71
2023/06/20 04:21:35;;;;;;;3.30;3.00;;;;;;;17.31;100.00;97697.34;1710124;75;685256;-72
2023/06/20 04:24:05;;;;;;;5.65;5.05;;;;;;;17.35;100.00;97701.31;1701259;75;747101;-69
2023/06/20 04:26:38;;;;;;;4.50;4.10;;;;;;;17.44;100.00;97703.72;1709980;75;672914;-71
2023/06/20 04:29:09;;;;;;;4.20;3.80;;;;;;;17.39;100.00;97701.78;1700737;75;756232;-71
2023/06/20 04:31:39;;;;;;;4.30;3.90;;;;;;;17.48;100.00;97699.91;1710012;75;674444;-69
2023/06/20 04:34:09;;;;;;;4.20;3.60;;;;;;;17.56;100.00;97707.09;1701268;75;771595;-72
2023/06/20 04:36:39;;;;;;;3.35;3.05;;;;;;;17.63;100.00;97697.44;1709719;75;678846;-70
2023/06/20 04:39:11;;;;;;;3.45;3.05;;;;;;;17.66;100.00;97686.09;1701399;75;745694;-70
2023/06/20 04:41:44;;;;;;;3.70;3.40;;;;;;;17.76;100.00;97700.31;1710142;75;677298;-69
2023/06/20 04:44:14;;;;;;;5.35;4.85;;;;;;;17.71;100.00;97695.59;1701230;75;740209;-70
2023/06/20 04:46:44;;;;;;;5.10;4.60;;;;;;;17.78;100.00;97694.25;1709860;75;676641;-68
2023/06/20 04:49:14;;;;;;;4.55;4.05;;;;;;;17.88;100.00;97695.38;1700626;75;753571;-71
2023/06/20 04:51:44;;;;;;;5.30;4.55;;;;;;;17.86;100.00;97690.38;1709550;75;684172;-69
2023/06/20 04:54:15;;;;;;;4.60;4.20;;;;;;;17.98;100.00;97693.00;1700998;75;745619;-70
2023/06/20 04:56:47;;;;;;;4.65;4.20;;;;;;;18.10;100.00;97695.06;1709743;75;677256;-69
2023/06/20 04:59:18;;;;;;;5.05;4.35;;;;;;;18.18;100.00;97695.19;1701122;75;743796;-69
2023/06/20 05:01:51;;;;;;;5.80;5.30;;;;;;;18.22;100.00;97701.19;1710170;75;675488;-70
2023/06/20 05:04:21;;;;;;;4.70;4.20;;;;;;;18.38;100.00;97698.69;1701524;75;735133;-69
2023/06/20 05:06:52;;;;;;;4.90;4.50;;;;;;;18.38;100.00;97699.44;1709669;75;679512;-69
2023/06/20 05:09:22;;;;;;;6.75;6.10;;;;;;;18.40;100.00;97696.13;1700846;75;739129;-70
2023/06/20 05:11:55;;;;;;;6.35;5.75;;;;;;;18.49;100.00;97692.97;1710421;75;679003;-70
2023/06/20 05:14:25;;;;;;;5.50;4.75;;;;;;;18.68;100.00;97693.63;1701196;75;756410;-71
2023/06/20 05:16:55;;;;;;;4.65;4.25;;;;;;;18.79;100.00;97700.31;1710253;75;685707;-73
2023/06/20 05:19:25;;;;;;;4.45;4.05;;;;;;;18.86;100.00;97699.69;1701312;75;732059;-71
2023/06/20 05:21:56;;;;;;;5.95;5.35;;;;;;;18.91;100.00;97707.91;1709651;75;689785;-71
2023/06/20 05:24:26;;;;;;;10.25;9.25;;;;;;;19.01;100.00;97710.28;1684700;75;1973234;-72
2023/06/20 05:27:03;;;;;;;10.40;9.40;;;;;;;19.23;100.00;97704.28;1709350;75;712036;-69
2023/06/20 05:29:34;;;;;;;8.05;7.35;;;;;;;19.36;100.00;97701.53;1700261;75;755241;-71
2023/06/20 05:32:08;;;;;;;6.70;6.10;;;;;;;19.48;100.00;97695.72;1675896;75;3458920;-70
2023/06/20 05:34:38;;;;;;;6.70;6.10;;;;;;;19.56;100.00;97693.81;1699773;75;768937;-71
2023/06/20 05:37:11;;;;;;;13.00;11.70;;;;;;;19.72;100.00;97689.19;1709937;75;707888;-70
2023/06/20 05:39:41;;;;;;;11.70;10.50;;;;;;;19.82;100.00;97695.81;1700247;75;782659;-71
2023/06/20 05:42:18;;;;;;;9.70;8.80;;;;;;;20.02;100.00;97696.41;1682850;75;2926414;-71
2023/06/20 05:44:52;;;;;;;9.85;8.45;;;;;;;20.09;100.00;97690.19;1700165;75;740418;-70
2023/06/20 05:47:22;;;;;;;8.10;7.30;;;;;;;20.18;100.00;97698.06;1708263;75;783623;-70
2023/06/20 05:49:57;;;;;;;12.20;8.90;;;;;;;20.32;100.00;97696.69;1673936;75;2932773;-71
2023/06/20 05:52:35;;;;;;;7.80;7.00;;;;;;;20.43;100.00;97696.44;1709691;75;681335;-71
2023/06/20 05:55:07;;;;;;;7.65;6.95;;;;;;;20.43;100.00;97685.31;1685055;75;1959169;-69
2023/06/20 05:57:41;;;;;;;8.40;7.50;;;;;;;20.57;100.00;97688.81;1709719;75;699526;-72
2023/06/20 06:00:14;;;;;;;7.35;6.65;;;;;;;20.70;100.00;97687.97;1700077;75;750427;-69
2023/06/20 06:02:49;;;;;;;6.70;5.90;;;;;;;20.82;100.00;97688.44;1709391;75;685687;-72
2023/06/20 06:05:19;;;;;;;6.45;5.70;;;;;;;20.90;100.00;97703.16;1701223;75;740942;-70
2023/06/20 06:07:50;;;;;;;5.70;5.10;;;;;;;21.04;100.00;97706.56;1709647;75;671013;-69
2023/06/20 06:10:21;;;;;;;8.70;7.90;;;;;;;21.12;100.00;97701.81;1701205;75;727089;-69
2023/06/20 06:12:55;;;;;;;7.90;7.10;;;;;;;21.20;100.00;97713.00;1709160;75;684737;-69
2023/06/20 06:15:29;;;;;;;9.00;8.10;;;;;;;21.37;100.00;97718.09;1700047;75;738035;-70
2023/06/20 06:18:07;;;;;;;9.75;8.75;;;;;;;21.46;100.00;97726.72;1708547;75;736397;-69
2023/06/20 06:20:40;;;;;;;9.95;8.95;;;;;;;21.60;100.00;97729.38;1700403;75;750495;-70
2023/06/20 06:23:11;;;;;;;9.05;8.15;;;;;;;21.73;100.00;97732.06;1709542;75;675305;-69
2023/06/20 06:25:44;;;;;;;11.10;9.95;;;;;;;21.85;100.00;97732.47;1701622;75;719460;-69
2023/06/20 06:28:17;;;;;;;10.20;9.20;;;;;;;21.96;100.00;97736.97;1708547;75;764080;-68
2023/06/20 06:30:48;;;;;;;9.05;8.15;;;;;;;22.05;100.00;97736.44;1700783;75;737625;-70
2023/06/20 06:33:19;;;;;;;8.10;7.30;;;;;;;22.13;100.00;97728.88;1710019;75;681253;-69
2023/06/20 06:35:50;;;;;;;10.70;8.60;;;;;;;22.27;99.50;97729.47;1701150;75;731589;-70
2023/06/20 06:38:22;;;;;;;9.20;8.30;;;;;;;22.40;97.29;97734.16;1709548;75;673861;-71
2023/06/20 06:40:54;;;;;;;10.70;9.55;;;;;;;22.37;97.92;97729.66;1701054;75;730528;-72
2023/06/20 06:43:27;;;;;;;9.30;7.75;;;;;;;22.62;94.00;97725.06;1710166;75;670014;-71
2023/06/20 06:45:57;;;;;;;7.05;6.35;;;;;;;22.83;93.89;97722.09;1700610;75;741190;-71
2023/06/20 06:48:28;;;;;;;8.20;6.80;;;;;;;22.94;93.38;97732.13;1709222;75;673395;-71
2023/06/20 06:50:58;;;;;;;8.55;7.30;;;;;;;23.01;90.00;97725.09;1701397;75;747227;-70
2023/06/20 06:53:29;;;;;;;8.10;7.30;;;;;;;23.09;90.13;97728.59;1709564;75;677431;-71
2023/06/20 06:55:59;;;;;;;10.30;8.20;;;;;;;23.17;87.16;97715.38;1700542;75;750468;-72
2023/06/20 06:58:32;;;;;;;7.50;6.70;;;;;;;23.32;83.61;97717.41;1709985;75;675230;-70
2023/06/20 07:01:02;;;;;;;7.45;6.30;;;;;;;23.41;82.14;97711.25;1700814;75;751618;-71
2023/06/20 07:03:32;;;;;;;8.10;7.30;;;;;;;23.50;81.08;97713.44;1709492;75;676128;-71
2023/06/20 07:06:03;;;;;;;8.90;8.00;;;;;;;23.46;81.51;97723.53;1700724;75;751880;-72
2023/06/20 07:08:34;;;;;;;10.30;8.50;;;;;;;23.55;80.48;97725.72;1709649;75;681642;-68
2023/06/20 07:11:04;;;;;;;7.85;6.95;;;;;;;23.73;79.97;97709.81;1699593;75;816518;-70
2023/06/20 07:13:36;;;;;;;8.60;7.60;;;;;;;23.90;79.08;97698.03;1710488;75;678276;-69
2023/06/20 07:16:08;;;;;;;7.65;6.85;;;;;;;24.05;82.93;97692.34;1701886;75;725529;-70
2023/06/20 07:18:38;;;;;;;5.90;5.30;;;;;;;24.21;80.98;97688.16;1710623;75;671967;-74
2023/06/20 07:21:08;;;;;;;6.45;5.25;;;;;;;24.26;74.99;97685.72;1701665;75;739332;-71
2023/06/20 07:23:38;;;;;;;7.90;7.00;;;;;;;24.34;75.77;97680.78;1710351;75;677813;-74
2023/06/20 07:26:08;;;;;;;7.45;6.70;;;;;;;24.49;76.25;97680.00;1701119;75;757565;-69
2023/06/20 07:28:41;;;;;;;8.85;7.30;;;;;;;24.60;72.54;97688.66;1709568;75;686550;-69
2023/06/20 07:31:18;;;;;;;7.50;6.80;;;;;;;24.54;73.64;97685.34;1700406;75;744277;-72
2023/06/20 07:33:48;;;;;;;6.60;5.90;;;;;;;24.71;75.80;97681.13;1702086;75;672008;-68
2023/06/20 07:36:19;;;;;;;7.75;6.55;;;;;;;24.93;74.89;97680.16;1709975;75;667635;-71
2023/06/20 07:38:49;;;;;;;9.40;7.45;;;;;;;24.79;76.00;97678.97;1702419;75;694697;-70
2023/06/20 07:41:19;;;;;;;7.50;6.80;;;;;;;25.14;76.90;97676.97;1710338;75;678684;-69
2023/06/20 07:43:52;;;;;;;6.90;6.20;;;;;;;25.17;73.89;97681.44;1701844;75;707825;-69
2023/06/20 07:46:22;;;;;;;6.50;5.90;;;;;;;25.36;72.51;97675.28;1710277;75;679006;-70
2023/06/20 07:48:52;;;;;;;6.00;5.40;;;;;;;25.46;72.62;97676.09;1701867;75;685259;-71
2023/06/20 07:51:23;;;;;;;8.95;8.05;;;;;;;25.13;70.15;97685.94;1710460;75;675609;-71
2023/06/20 07:53:53;;;;;;;7.45;6.40;;;;;;;25.43;69.64;97685.66;1702026;75;682343;-72
2023/06/20 07:56:24;;;;;;;6.95;6.25;;;;;;;25.47;71.50;97674.00;1710248;75;685204;-67
2023/06/20 07:58:57;;;;;;;7.00;6.30;;;;;;;25.50;69.74;97676.41;1702296;75;671487;-69
2023/06/20 08:01:27;;;;;;;9.50;7.00;;;;;;;25.62;70.41;97678.72;1709923;75;679027;-71
2023/06/20 08:03:57;;;;;;;8.10;7.30;;;;;;;25.58;69.27;97675.59;1702676;75;681668;-71
2023/06/20 08:06:27;;;;;;;9.30;7.90;;;;;;;25.88;71.11;97677.28;1710265;75;674958;-70
2023/06/20 08:08:58;;;;;;;7.90;6.10;;;;;;;26.15;69.17;97680.09;1702311;75;690314;-74
2023/06/20 08:11:29;;;;;;;6.50;5.90;;;;;;;26.43;72.04;97675.91;1709899;75;682685;-68
2023/06/20 08:14:02;;;;;;;8.10;7.30;;;;;;;26.46;69.26;97677.56;1702118;75;681201;-73
2023/06/20 08:16:32;;;;;;;7.10;6.40;;;;;;;26.82;70.73;97675.31;1710670;75;676704;-70
2023/06/20 08:19:02;;;;;;;6.00;5.40;;;;;;;27.04;69.54;97674.19;1702501;75;672842;-71
2023/06/20 08:21:33;;;;;;;6.55;5.95;;;;;;;26.85;69.20;97672.09;1709951;75;676147;-70
2023/06/20 08:24:03;;;;;;;7.60;6.70;;;;;;;26.89;68.76;97672.41;1701412;75;701256;-74
2023/06/20 08:26:33;;;;;;;8.90;7.60;;;;;;;27.06;69.05;97671.53;1709874;75;675583;-70
2023/06/20 08:29:08;;;;;;;8.00;7.30;;;;;;;27.08;66.98;97671.66;1702516;75;678714;-69
2023/06/20 08:31:40;;;;;;;7.60;6.80;;;;;;;27.18;68.98;97668.91;1709944;75;676025;-72
2023/06/20 08:34:10;;;;;;;7.80;7.00;;;;;;;27.08;66.67;97660.44;1702010;75;675500;-71
2023/06/20 08:36:40;;;;;;;8.65;7.75;;;;;;;27.42;67.49;97664.34;1710456;75;677677;-71
2023/06/20 08:39:11;;;;;;;8.40;7.60;;;;;;;27.24;67.60;97665.81;1701981;75;689098;-71
2023/06/20 08:41:41;;;;;;;8.50;7.70;;;;;;;27.23;66.47;97669.94;1710236;75;672396;-70
2023/06/20 08:44:14;;;;;;;7.90;7.10;;;;;;;27.23;66.21;97661.50;1701812;75;691170;-71
2023/06/20 08:46:45;;;;;;;7.50;6.80;;;;;;;26.93;66.35;97671.94;1709505;75;677883;-68
2023/06/20 08:49:16;;;;;;;7.15;6.45;;;;;;;27.10;65.26;97660.59;1701618;75;746672;-70
2023/06/20 08:51:50;;;;;;;6.50;5.90;;;;;;;27.40;64.57;97667.00;1710453;75;673965;-68
2023/06/20 08:54:23;;;;;;;6.90;6.30;;;;;;;27.52;64.17;97667.16;1701232;75;755738;-71
2023/06/20 08:56:53;;;;;;;7.70;6.80;;;;;;;27.57;65.60;97664.03;1709740;75;692452;-70
2023/06/20 08:59:27;;;;;;;7.50;6.60;;;;;;;27.83;65.22;97658.84;1702133;75;748336;-69
2023/06/20 09:01:57;;;;;;;8.30;7.50;;;;;;;27.50;64.35;97664.19;1710317;75;722180;-70
2023/06/20 09:04:30;;;;;;;9.20;7.90;;;;;;;27.40;64.20;97664.19;1702911;75;736433;-72
2023/06/20 09:07:01;;;;;;;7.90;7.10;;;;;;;27.71;63.92;97661.50;1711608;75;676796;-70
2023/06/20 09:09:33;;;;;;;8.15;7.35;;;;;;;27.69;63.43;97657.78;1702227;75;751910;-71
2023/06/20 09:12:03;;;;;;;6.80;6.10;;;;;;;27.78;62.93;97657.78;1710452;75;673851;-69
2023/06/20 09:14:35;;;;;;;7.60;6.80;;;;;;;27.95;63.17;97661.75;1701356;75;754468;-71
2023/06/20 09:17:06;;;;;;;7.70;6.90;;;;;;;27.97;62.63;97664.69;1709880;75;672702;-71
2023/06/20 09:19:47;;;;;;;8.50;7.70;;;;;;;27.90;64.46;97669.19;1701027;75;773177;-72
2023/06/20 09:22:21;;;;;;;7.80;7.00;;;;;;;27.78;61.78;97668.28;1701985;75;692607;-70
2023/06/20 09:24:51;;;;;;;7.20;6.50;;;;;;;28.20;61.70;97664.19;1709957;75;674554;-69
2023/06/20 09:27:22;;;;;;;7.05;6.35;;;;;;;28.15;61.28;97670.88;1702035;75;683336;-69
2023/06/20 09:30:00;;;;;;;7.00;6.30;;;;;;;28.40;61.66;97665.59;1709651;75;681342;-73
2023/06/20 09:32:35;;;;;;;6.50;5.90;;;;;;;28.41;60.77;97666.34;1701782;75;678099;-70
2023/06/20 09:35:08;;;;;;;7.40;6.60;;;;;;;28.34;60.59;97673.63;1709927;75;667440;-73
2023/06/20 09:37:46;;;;;;;8.20;6.90;;;;;;;28.34;61.62;97670.81;1701522;75;743400;-69
2023/06/20 09:40:18;;;;;;;6.80;6.20;;;;;;;28.41;60.54;97672.72;1701408;75;702103;-71
2023/06/20 09:42:50;;;;;;;7.40;6.70;;;;;;;28.30;61.43;97673.34;1709773;75;675970;-70
2023/06/20 09:45:23;;;;;;;8.50;7.70;;;;;;;28.33;62.02;97668.59;1701994;75;674291;-72
2023/06/20 09:47:54;;;;;;;8.00;7.30;;;;;;;28.45;61.35;97675.06;1709472;75;698645;-72
2023/06/20 09:50:26;;;;;;;8.90;6.90;;;;;;;28.60;62.43;97671.16;1702103;75;680068;-70
2023/06/20 09:53:04;;;;;;;6.30;5.70;;;;;;;28.93;61.76;97667.72;1710173;75;670977;-71
2023/06/20 09:55:38;;;;;;;6.90;6.30;;;;;;;28.86;59.61;97675.03;1702280;75;674987;-71
2023/06/20 09:58:09;;;;;;;9.80;6.50;;;;;;;29.19;60.34;97668.75;1709666;75;675922;-69
2023/06/20 10:00:42;;;;;;;6.65;6.05;;;;;;;29.28;58.93;97657.41;1701315;75;740600;-74
2023/06/20 10:03:13;;;;;;;7.70;7.00;;;;;;;29.00;59.37;97661.13;1709769;75;674742;-68
2023/06/20 10:05:44;;;;;;;8.00;7.30;;;;;;;28.76;58.60;97668.72;1700463;75;749447;-71
2023/06/20 10:08:18;;;;;;;6.95;6.25;;;;;;;29.41;58.28;97658.91;1710026;75;686254;-71
2023/06/20 10:10:49;;;;;;;7.20;6.50;;;;;;;29.46;57.04;97654.28;1700530;75;748625;-71
2023/06/20 10:13:19;;;;;;;6.85;6.15;;;;;;;29.73;57.56;97653.91;1709431;75;678458;-72
2023/06/20 10:15:52;;;;;;;6.40;5.80;;;;;;;29.92;57.53;97650.88;1701239;75;724809;-72
2023/06/20 10:18:37;;;;;;;7.10;6.40;;;;;;;29.78;56.84;97640.78;1709823;75;674143;-69
2023/06/20 10:21:09;;;;;;;7.00;6.30;;;;;;;30.18;57.06;97642.56;1701028;75;759681;-71
2023/06/20 10:23:40;;;;;;;7.80;7.00;;;;;;;29.56;56.58;97640.84;1709048;75;693768;-70
2023/06/20 10:26:12;;;;;;;7.45;6.40;;;;;;;29.83;56.59;97640.44;1700064;75;761536;-71
2023/06/20 10:28:44;;;;;;;6.50;5.85;;;;;;;30.17;55.81;97646.75;1709761;75;672534;-70
2023/06/20 10:31:17;;;;;;;7.65;6.15;;;;;;;30.48;53.19;97642.97;1700943;75;739871;-69
2023/06/20 10:33:50;;;;;;;5.60;4.70;;;;;;;30.69;53.50;97644.91;1709920;75;671968;-71
2023/06/20 10:36:21;;;;;;;4.90;4.45;;;;;;;30.59;51.38;97647.88;1700665;75;727314;-70
2023/06/20 10:39:12;;;;;;;5.30;4.80;;;;;;;30.60;52.18;97648.63;1709891;75;673448;-71
2023/06/20 10:41:45;;;;;;;4.95;4.45;;;;;;;30.90;52.85;97647.59;1700967;75;751395;-70
2023/06/20 10:44:31;;;;;;;5.45;4.95;;;;;;;31.14;53.32;97647.53;1709773;75;678636;-71
2023/06/20 10:47:05;;;;;;;6.85;5.90;;;;;;;31.02;51.63;97644.00;1701871;75;733674;-70
2023/06/20 10:49:36;;;;;;;8.40;6.60;;;;;;;30.53;52.40;97634.13;1710383;75;675003;-74
2023/06/20 10:52:07;;;;;;;6.60;5.75;;;;;;;30.98;53.21;97630.38;1701805;75;752030;-71
2023/06/20 10:54:37;;;;;;;7.40;6.60;;;;;;;30.85;52.98;97636.69;1710328;75;674226;-69
2023/06/20 10:57:09;;;;;;;8.50;6.00;;;;;;;30.73;52.18;97648.72;1702141;75;747028;-73
2023/06/20 10:59:39;;;;;;;6.90;6.20;;;;;;;30.68;52.85;97638.53;1710494;75;672037;-72
2023/06/20 11:02:14;;;;;;;7.40;6.70;;;;;;;30.52;52.88;97641.13;1701682;75;745304;-73
2023/06/20 11:04:44;;;;;;;6.40;5.80;;;;;;;30.36;51.85;97638.06;1710502;75;672871;-70
2023/06/20 11:07:14;;;;;;;7.35;6.65;;;;;;;30.60;51.72;97640.16;1701547;75;751583;-71
2023/06/20 11:09:44;;;;;;;5.65;5.15;;;;;;;30.85;53.25;97639.50;1710144;75;676100;-70
2023/06/20 11:12:15;;;;;;;5.75;5.25;;;;;;;31.01;51.40;97636.91;1701319;75;754254;-73
2023/06/20 11:14:45;;;;;;;5.70;5.20;;;;;;;30.82;52.27;97635.81;1710384;75;674115;-72
2023/06/20 11:17:18;;;;;;;5.95;5.40;;;;;;;30.94;53.34;97635.81;1701761;75;755693;-70
2023/06/20 11:19:48;;;;;;;7.55;6.85;;;;;;;30.93;52.16;97632.25;1710030;75;678162;-69
2023/06/20 11:22:20;;;;;;;7.55;6.80;;;;;;;31.07;52.38;97637.25;1702010;75;750261;-71
2023/06/20 11:24:50;;;;;;;7.40;6.50;;;;;;;31.08;52.43;97630.25;1710864;75;672732;-72
2023/06/20 11:27:20;;;;;;;7.10;6.40;;;;;;;31.07;51.39;97629.47;1700861;75;771906;-74
2023/06/20 11:29:51;;;;;;;9.95;8.00;;;;;;;30.94;51.74;97632.97;1710583;75;679756;-72
2023/06/20 11:32:23;;;;;;;7.15;6.55;;;;;;;31.29;51.97;97632.84;1701089;75;753290;-73
2023/06/20 11:35:03;;;;;;;7.20;6.60;;;;;;;31.39;50.86;97632.72;1710230;75;695071;-72
2023/06/20 11:37:34;;;;;;;6.75;6.00;;;;;;;31.63;51.33;97628.44;1701847;75;743652;-72
2023/06/20 11:40:09;;;;;;;6.50;5.90;;;;;;;31.31;50.58;97623.75;1710659;75;678216;-72
2023/06/20 11:42:42;;;;;;;7.65;6.95;;;;;;;31.21;50.36;97623.91;1701492;75;748151;-72